createdAt,value
2022-10-30T00:00:43.743Z,5.13
2022-10-30T00:03:14.185Z,5.32
2022-10-30T00:05:43.116Z,5.18
2022-10-30T00:08:13.815Z,4.75
2022-10-30T00:10:40.773Z,5.43
2022-10-30T00:13:07.965Z,5.05
2022-10-30T00:15:34.721Z,5.07
2022-10-30T00:18:01.797Z,4.22
2022-10-30T00:20:28.136Z,5.60
2022-10-30T00:22:54.965Z,5.03
2022-10-30T00:25:21.866Z,4.90
2022-10-30T00:27:48.351Z,4.93
2022-10-30T00:30:15.586Z,5.30
2022-10-30T00:32:42.784Z,4.88
2022-10-30T00:35:10.325Z,4.32
2022-10-30T00:37:36.802Z,4.93
2022-10-30T00:40:04.584Z,4.85
2022-10-30T00:42:31.850Z,4.57
2022-10-30T00:44:59.018Z,5.32
2022-10-30T00:47:30.373Z,5.10
2022-10-30T00:50:17.852Z,4.93
2022-10-30T00:52:51.533Z,4.68
2022-10-30T00:55:22.745Z,5.03
2022-10-30T00:57:50.682Z,5.15
2022-10-30T01:00:19.099Z,5.25
2022-10-30T01:02:45.842Z,5.25
2022-10-30T01:05:17.185Z,5.28
2022-10-30T01:07:43.511Z,5.40
2022-10-30T01:10:10.993Z,4.82
2022-10-30T01:12:38.377Z,5.93
2022-10-30T01:15:05.534Z,5.50
2022-10-30T01:17:49.915Z,5.38
2022-10-30T01:20:22.185Z,5.63
2022-10-30T01:23:03.640Z,5.63
2022-10-30T01:25:56.583Z,4.80
2022-10-30T01:28:22.856Z,5.32
2022-10-30T01:31:06.613Z,5.72
2022-10-30T01:33:46.032Z,4.68
2022-10-30T01:36:25.844Z,5.32
2022-10-30T01:39:14.542Z,5.47
2022-10-30T01:41:41.040Z,5.78
2022-10-30T01:44:16.666Z,5.53
2022-10-30T01:47:07.547Z,6.05
2022-10-30T01:49:59.105Z,5.47
2022-10-30T01:52:39.537Z,6.25
2022-10-30T01:55:36.692Z,6.10
2022-10-30T01:58:21.920Z,5.65
2022-10-30T02:00:57.536Z,6.30
2022-10-30T02:03:24.821Z,5.95
2022-10-30T02:05:52.744Z,5.97
2022-10-30T02:08:21.029Z,5.85
2022-10-30T02:10:49.577Z,6.05
2022-10-30T02:13:16.447Z,5.95
2022-10-30T02:15:44.460Z,6.43
2022-10-30T02:18:11.081Z,5.95
2022-10-30T02:20:37.889Z,6.30
2022-10-30T02:23:06.678Z,6.47
2022-10-30T02:25:33.658Z,5.93
2022-10-30T02:28:00.240Z,6.25
2022-10-30T02:30:26.905Z,5.72
2022-10-30T02:32:53.313Z,6.03
2022-10-30T02:35:19.701Z,6.03
2022-10-30T02:37:48.541Z,6.40
2022-10-30T02:40:14.898Z,5.85
2022-10-30T02:42:41.248Z,5.00
2022-10-30T02:45:08.306Z,5.30
2022-10-30T02:47:34.624Z,5.93
2022-10-30T02:50:01.006Z,5.78
2022-10-30T02:52:27.405Z,6.50
2022-10-30T02:54:53.735Z,5.88
2022-10-30T02:57:20.094Z,5.57
2022-10-30T02:59:46.545Z,5.95
2022-10-30T03:02:12.954Z,6.15
2022-10-30T03:04:39.395Z,5.45
2022-10-30T03:07:05.740Z,6.22
2022-10-30T03:09:32.066Z,6.40
2022-10-30T03:11:58.426Z,5.82
2022-10-30T03:14:24.922Z,5.90
2022-10-30T03:16:52.512Z,5.57
2022-10-30T03:19:19.580Z,6.40
2022-10-30T03:21:46.382Z,5.68
2022-10-30T03:24:12.827Z,5.82
2022-10-30T03:26:39.168Z,6.03
2022-10-30T03:29:05.524Z,6.13
2022-10-30T03:31:32.677Z,6.28
2022-10-30T03:33:59.036Z,5.30
2022-10-30T03:36:26.336Z,6.32
2022-10-30T03:38:52.721Z,5.53
2022-10-30T03:41:19.029Z,5.88
2022-10-30T03:43:45.483Z,6.10
2022-10-30T03:46:11.848Z,5.68
2022-10-30T03:48:38.194Z,5.93
2022-10-30T03:51:04.677Z,5.13
2022-10-30T03:53:31.227Z,6.25
2022-10-30T03:56:00.092Z,5.40
2022-10-30T03:58:28.519Z,6.15
2022-10-30T04:00:55.455Z,5.47
2022-10-30T04:03:21.911Z,5.25
2022-10-30T04:05:50.965Z,5.70
2022-10-30T04:08:17.884Z,6.00
2022-10-30T04:10:45.427Z,5.40
2022-10-30T04:13:14.138Z,5.88
2022-10-30T04:15:40.971Z,6.15
2022-10-30T04:18:13.239Z,6.80
2022-10-30T04:20:39.916Z,5.68
2022-10-30T04:23:08.354Z,5.38
2022-10-30T04:25:35.387Z,5.80
2022-10-30T04:28:02.366Z,5.80
2022-10-30T04:30:31.249Z,5.93
2022-10-30T04:32:58.390Z,6.05
2022-10-30T04:35:27.300Z,5.45
2022-10-30T04:38:05.205Z,5.45
2022-10-30T04:40:34.957Z,5.80
2022-10-30T04:43:02.902Z,5.88
2022-10-30T04:45:29.846Z,6.05
2022-10-30T04:48:04.603Z,5.18
2022-10-30T04:50:32.129Z,5.38
2022-10-30T04:53:03.796Z,5.80
2022-10-30T04:55:30.953Z,6.82
2022-10-30T04:57:59.027Z,5.25
2022-10-30T05:00:27.078Z,5.93
2022-10-30T05:02:53.466Z,6.22
2022-10-30T05:05:20.458Z,5.28
2022-10-30T05:07:46.949Z,6.45
2022-10-30T05:10:18.347Z,6.20
2022-10-30T05:12:45.452Z,5.78
2022-10-30T05:15:13.526Z,5.93
2022-10-30T05:17:40.783Z,5.60
2022-10-30T05:20:07.997Z,5.75
2022-10-30T05:22:34.375Z,6.30
2022-10-30T05:25:00.717Z,6.13
2022-10-30T05:27:27.050Z,6.32
2022-10-30T05:29:53.391Z,7.40
2022-10-30T05:32:19.799Z,6.30
2022-10-30T05:34:46.197Z,5.68
2022-10-30T05:37:12.543Z,6.05
2022-10-30T05:39:38.873Z,5.38
2022-10-30T05:42:08.524Z,5.85
2022-10-30T05:44:59.250Z,5.35
2022-10-30T05:47:22.581Z,6.32
2022-10-30T05:49:48.926Z,5.60
2022-10-30T05:52:15.333Z,5.78
2022-10-30T05:54:41.683Z,6.78
2022-10-30T05:57:08.013Z,6.00
2022-10-30T05:59:34.430Z,6.07
2022-10-30T06:02:00.858Z,5.85
2022-10-30T06:04:27.314Z,6.03
2022-10-30T06:06:53.672Z,6.53
2022-10-30T06:09:20.076Z,6.32
2022-10-30T06:11:46.416Z,6.18
2022-10-30T06:14:12.745Z,7.10
2022-10-30T06:16:39.431Z,6.43
2022-10-30T06:19:05.777Z,6.13
2022-10-30T06:21:32.156Z,6.15
2022-10-30T06:23:58.951Z,6.80
2022-10-30T06:26:25.357Z,6.65
2022-10-30T06:28:51.886Z,6.22
2022-10-30T06:31:18.266Z,6.88
2022-10-30T06:36:11.066Z,5.88
2022-10-30T06:38:37.483Z,6.55
2022-10-30T06:41:03.987Z,6.95
2022-10-30T06:43:30.429Z,5.95
2022-10-30T06:45:59.890Z,5.68
2022-10-30T06:48:26.325Z,6.47
2022-10-30T06:51:00.213Z,6.30
2022-10-30T06:53:27.263Z,6.60
2022-10-30T06:56:00.241Z,6.18
2022-10-30T06:58:27.733Z,5.65
2022-10-30T07:01:10.053Z,6.13
2022-10-30T07:03:36.756Z,6.07
2022-10-30T07:06:03.531Z,6.50
2022-10-30T07:08:29.889Z,6.72
2022-10-30T07:10:58.095Z,6.53
2022-10-30T07:13:24.666Z,7.55
2022-10-30T07:15:51.032Z,6.15
2022-10-30T07:18:17.414Z,5.88
2022-10-30T07:20:43.828Z,5.78
2022-10-30T07:23:10.205Z,6.28
2022-10-30T07:25:36.521Z,6.90
2022-10-30T07:28:03.336Z,6.97
2022-10-30T07:30:29.812Z,6.32
2022-10-30T07:33:02.157Z,6.35
2022-10-30T07:35:29.563Z,6.18
2022-10-30T07:37:55.976Z,6.55
2022-10-30T07:40:22.803Z,6.93
2022-10-30T07:42:49.339Z,6.78
2022-10-30T07:45:15.720Z,6.72
2022-10-30T07:47:43.342Z,6.50
2022-10-30T07:50:10.666Z,6.00
2022-10-30T07:52:37.315Z,6.00
2022-10-30T07:55:04.942Z,6.70
2022-10-30T07:57:35.511Z,7.13
2022-10-30T08:00:04.653Z,6.47
2022-10-30T08:02:31.986Z,6.28
2022-10-30T08:04:58.661Z,7.28
2022-10-30T08:07:29.680Z,6.72
2022-10-30T08:09:56.074Z,6.55
2022-10-30T08:12:22.433Z,6.13
2022-10-30T08:14:49.176Z,6.43
2022-10-30T08:17:15.584Z,6.32
2022-10-30T08:19:41.913Z,5.53
2022-10-30T08:22:08.924Z,6.00
2022-10-30T08:24:35.370Z,6.60
2022-10-30T08:27:02.590Z,6.05
2022-10-30T08:29:28.964Z,6.07
2022-10-30T08:31:55.561Z,8.68
2022-10-30T08:34:22.353Z,8.77
2022-10-30T08:36:52.011Z,7.55
2022-10-30T08:39:19.000Z,6.80
2022-10-30T08:41:45.761Z,6.72
2022-10-30T08:44:12.506Z,6.47
2022-10-30T08:46:38.908Z,6.57
2022-10-30T08:49:05.285Z,6.60
2022-10-30T08:51:35.347Z,7.03
2022-10-30T08:54:01.834Z,7.35
2022-10-30T08:56:28.285Z,7.18
2022-10-30T08:58:54.777Z,7.07
2022-10-30T09:01:21.267Z,6.28
2022-10-30T09:03:47.850Z,6.70
2022-10-30T09:06:14.202Z,6.30
2022-10-30T09:08:40.713Z,6.40
2022-10-30T09:11:07.239Z,5.85
2022-10-30T09:13:33.617Z,6.50
2022-10-30T09:16:01.402Z,5.88
2022-10-30T09:18:29.295Z,6.07
2022-10-30T09:20:55.666Z,6.53
2022-10-30T09:23:22.153Z,5.55
2022-10-30T09:25:48.542Z,6.13
2022-10-30T09:28:14.902Z,6.22
2022-10-30T09:30:41.279Z,6.25
2022-10-30T09:33:09.098Z,6.07
2022-10-30T09:35:36.952Z,6.18
2022-10-30T09:38:03.475Z,6.05
2022-10-30T09:41:03.454Z,5.93
2022-10-30T09:44:00.639Z,6.03
2022-10-30T09:46:45.408Z,5.57
2022-10-30T09:49:41.330Z,5.88
2022-10-30T09:52:32.341Z,6.47
2022-10-30T09:55:32.126Z,5.75
2022-10-30T09:58:12.417Z,5.20
2022-10-30T10:00:44.629Z,6.20
2022-10-30T10:03:42.326Z,6.07
2022-10-30T10:06:15.764Z,5.90
2022-10-30T10:08:46.635Z,5.93
2022-10-30T10:11:25.910Z,5.88
2022-10-30T10:14:09.363Z,5.50
2022-10-30T10:16:39.232Z,5.32
2022-10-30T10:19:20.598Z,5.47
2022-10-30T10:21:57.693Z,5.50
2022-10-30T10:24:32.650Z,5.60
2022-10-30T10:27:23.355Z,5.55
2022-10-30T10:30:11.035Z,5.47
2022-10-30T10:33:08.835Z,5.65
2022-10-30T10:35:52.699Z,5.57
2022-10-30T10:38:37.410Z,6.10
2022-10-30T10:41:18.657Z,5.28
2022-10-30T10:44:00.382Z,5.50
2022-10-30T10:46:49.288Z,5.90
2022-10-30T10:49:32.396Z,5.70
2022-10-30T10:52:07.145Z,5.80
2022-10-30T10:54:42.268Z,5.80
2022-10-30T10:57:21.880Z,6.00
2022-10-30T10:59:54.059Z,5.00
2022-10-30T11:02:26.607Z,5.13
2022-10-30T11:04:59.896Z,5.45
2022-10-30T11:07:45.425Z,5.60
2022-10-30T11:10:14.567Z,5.70
2022-10-30T11:12:41.610Z,4.97
2022-10-30T11:15:49.769Z,5.53
2022-10-30T11:18:16.224Z,5.22
2022-10-30T11:21:03.538Z,5.15
2022-10-30T11:23:35.928Z,5.13
2022-10-30T11:26:03.241Z,5.45
2022-10-30T11:28:41.948Z,5.15
2022-10-30T11:31:24.578Z,4.97
2022-10-30T11:33:51.827Z,4.90
2022-10-30T11:36:22.929Z,4.90
2022-10-30T11:38:50.021Z,5.10
2022-10-30T11:41:18.074Z,5.38
2022-10-30T11:43:45.218Z,5.13
2022-10-30T11:46:21.007Z,5.38
2022-10-30T11:48:54.536Z,5.25
2022-10-30T11:51:39.472Z,4.50
2022-10-30T11:54:07.176Z,4.82
2022-10-30T11:56:35.387Z,5.40
2022-10-30T11:59:04.612Z,5.13
2022-10-30T12:01:39.014Z,5.05
2022-10-30T12:04:22.091Z,5.20
2022-10-30T12:07:08.150Z,5.28
2022-10-30T12:09:45.662Z,5.47
2022-10-30T12:12:24.395Z,5.05
2022-10-30T12:14:52.367Z,5.00
2022-10-30T12:17:20.090Z,4.97
2022-10-30T12:19:52.840Z,5.07
2022-10-30T12:22:30.361Z,5.20
2022-10-30T12:24:58.662Z,4.60
2022-10-30T12:27:25.841Z,4.78
2022-10-30T12:30:08.384Z,5.38
2022-10-30T12:32:45.676Z,4.40
2022-10-30T12:35:22.436Z,4.95
2022-10-30T12:37:52.634Z,4.85
2022-10-30T12:40:24.339Z,5.28
2022-10-30T12:43:03.705Z,4.80
2022-10-30T12:45:41.224Z,4.82
2022-10-30T12:48:27.951Z,4.95
2022-10-30T12:51:21.251Z,4.88
2022-10-30T12:54:04.800Z,4.43
2022-10-30T12:56:38.882Z,4.50
2022-10-30T12:59:39.826Z,4.70
2022-10-30T13:02:32.874Z,4.70
2022-10-30T13:05:05.481Z,4.15
2022-10-30T13:07:51.183Z,4.45
2022-10-30T13:10:25.673Z,4.25
2022-10-30T13:13:02.006Z,4.63
2022-10-30T13:15:33.636Z,4.38
2022-10-30T13:18:13.670Z,4.70
2022-10-30T13:20:40.738Z,4.90
2022-10-30T13:23:20.439Z,4.43
2022-10-30T13:26:09.998Z,4.85
2022-10-30T13:28:46.621Z,4.80
2022-10-30T13:31:34.522Z,4.45
2022-10-30T13:34:16.351Z,4.15
2022-10-30T13:36:50.605Z,4.57
2022-10-30T13:39:26.035Z,4.13
2022-10-30T13:42:01.167Z,5.10
2022-10-30T13:44:56.617Z,4.47
2022-10-30T13:47:42.361Z,4.70
2022-10-30T13:50:25.528Z,4.10
2022-10-30T13:52:57.576Z,5.07
2022-10-30T13:55:34.670Z,4.07
2022-10-30T13:58:24.535Z,4.50
2022-10-30T14:00:59.935Z,4.55
2022-10-30T14:03:59.042Z,4.72
2022-10-30T14:06:30.941Z,4.22
2022-10-30T14:09:27.942Z,4.80
2022-10-30T14:11:56.987Z,3.75
2022-10-30T14:14:23.339Z,4.63
2022-10-30T14:17:08.568Z,4.85
2022-10-30T14:20:13.355Z,4.45
2022-10-30T14:22:41.186Z,4.22
2022-10-30T14:25:15.244Z,4.72
2022-10-30T14:27:41.983Z,3.88
2022-10-30T14:30:20.645Z,4.15
2022-10-30T14:32:51.843Z,4.20
2022-10-30T14:35:39.003Z,4.07
2022-10-30T14:38:08.360Z,4.28
2022-10-30T14:40:38.590Z,4.38
2022-10-30T14:43:32.044Z,4.43
2022-10-30T14:46:04.813Z,4.45
2022-10-30T14:48:53.868Z,4.90
2022-10-30T14:51:28.091Z,4.45
2022-10-30T14:54:18.478Z,4.55
2022-10-30T14:56:49.632Z,4.97
2022-10-30T14:59:15.909Z,4.55
2022-10-30T15:01:52.657Z,4.68
2022-10-30T15:04:34.265Z,4.88
2022-10-30T15:07:19.608Z,5.18
2022-10-30T15:10:06.648Z,4.55
2022-10-30T15:13:07.563Z,4.97
2022-10-30T15:15:34.745Z,4.85
2022-10-30T15:18:18.045Z,4.40
2022-10-30T15:20:49.549Z,4.85
2022-10-30T15:23:31.961Z,4.40
2022-10-30T15:26:06.476Z,5.05
2022-10-30T15:28:36.795Z,4.38
2022-10-30T15:31:06.478Z,4.75
2022-10-30T15:33:37.542Z,4.60
2022-10-30T15:36:05.456Z,5.63
2022-10-30T15:38:31.940Z,5.72
2022-10-30T15:41:01.751Z,5.40
2022-10-30T15:43:42.057Z,5.30
2022-10-30T15:46:10.667Z,6.32
2022-10-30T15:48:40.283Z,5.65
2022-10-30T15:51:16.817Z,5.68
2022-10-30T15:53:43.242Z,5.80
2022-10-30T15:56:30.664Z,6.10
2022-10-30T15:59:03.453Z,6.22
2022-10-30T16:01:33.025Z,6.07
2022-10-30T16:03:59.626Z,6.05
2022-10-30T16:06:31.362Z,6.50
2022-10-30T16:08:58.197Z,6.70
2022-10-30T16:11:26.646Z,7.15
2022-10-30T16:13:53.535Z,8.85
2022-10-30T16:16:27.822Z,8.15
2022-10-30T16:18:58.971Z,9.18
2022-10-30T16:21:29.598Z,11.10
2022-10-30T16:23:58.079Z,14.50
2022-10-30T16:26:35.283Z,12.23
2022-10-30T16:29:13.871Z,11.13
2022-10-30T16:31:43.063Z,15.20
2022-10-30T16:34:16.139Z,17.85
2022-10-30T16:36:43.137Z,18.33
2022-10-30T16:39:15.326Z,20.17
2022-10-30T16:41:43.259Z,19.67
2022-10-30T16:44:12.340Z,17.85
2022-10-30T16:46:42.174Z,15.82
2022-10-30T16:49:16.264Z,16.20
2022-10-30T16:51:43.001Z,13.10
2022-10-30T16:54:20.296Z,11.35
2022-10-30T16:56:48.873Z,12.30
2022-10-30T16:59:24.313Z,10.57
2022-10-30T17:01:57.438Z,9.52
2022-10-30T17:04:25.007Z,9.90
2022-10-30T17:07:04.764Z,10.60
2022-10-30T17:09:36.300Z,11.30
2022-10-30T17:12:15.280Z,11.30
2022-10-30T17:14:43.807Z,11.68
2022-10-30T17:17:23.445Z,12.98
2022-10-30T17:19:56.407Z,12.05
2022-10-30T17:22:24.190Z,11.70
2022-10-30T17:24:50.680Z,11.88
2022-10-30T17:27:46.167Z,11.15
2022-10-30T17:30:34.459Z,10.45
2022-10-30T17:33:24.732Z,10.90
2022-10-30T17:35:51.355Z,10.45
2022-10-30T17:38:18.229Z,13.70
2022-10-30T17:40:44.593Z,14.85
2022-10-30T17:43:16.564Z,12.05
2022-10-30T17:45:44.058Z,12.45
2022-10-30T17:48:18.126Z,12.68
2022-10-30T17:50:44.914Z,10.50
2022-10-30T17:53:23.151Z,11.13
2022-10-30T17:56:03.545Z,10.18
2022-10-30T17:58:31.061Z,9.85
2022-10-30T18:00:58.408Z,9.02
2022-10-30T18:03:24.812Z,10.27
2022-10-30T18:05:52.362Z,9.25
2022-10-30T18:08:18.729Z,10.48
2022-10-30T18:10:45.112Z,11.38
2022-10-30T18:13:13.233Z,11.10
2022-10-30T18:15:44.057Z,10.63
2022-10-30T18:18:10.929Z,10.75
2022-10-30T18:20:38.660Z,10.18
2022-10-30T18:23:31.610Z,13.25
2022-10-30T18:26:00.066Z,11.00
2022-10-30T18:28:26.529Z,11.95
2022-10-30T18:30:58.346Z,10.40
2022-10-30T18:33:25.217Z,10.48
2022-10-30T18:35:51.650Z,11.48
2022-10-30T18:38:18.060Z,10.15
2022-10-30T18:40:46.646Z,10.65
2022-10-30T18:43:14.322Z,9.05
2022-10-30T18:45:41.841Z,9.68
2022-10-30T18:48:08.749Z,9.82
2022-10-30T18:50:35.842Z,10.38
2022-10-30T18:53:02.603Z,9.23
2022-10-30T18:55:34.821Z,9.43
2022-10-30T18:58:01.891Z,9.25
2022-10-30T19:00:39.699Z,13.25
2022-10-30T19:03:16.796Z,11.02
2022-10-30T19:05:48.278Z,10.55
2022-10-30T19:08:15.147Z,9.05
2022-10-30T19:10:43.891Z,10.23
2022-10-30T19:13:20.339Z,9.40
2022-10-30T19:15:49.623Z,9.70
2022-10-30T19:18:17.178Z,11.77
2022-10-30T19:21:03.401Z,12.18
2022-10-30T19:28:23.365Z,9.13
2022-10-30T19:30:50.269Z,11.68
2022-10-30T19:33:18.117Z,12.90
2022-10-30T19:35:44.592Z,13.75
2022-10-30T19:38:12.685Z,13.55
2022-10-30T19:40:40.487Z,12.43
2022-10-30T19:43:07.140Z,12.02
2022-10-30T19:45:34.257Z,11.82
2022-10-30T19:48:04.170Z,11.10
2022-10-30T19:50:34.366Z,11.60
2022-10-30T19:53:02.368Z,11.23
2022-10-30T19:55:31.261Z,10.85
2022-10-30T19:57:59.500Z,11.57
2022-10-30T20:00:27.302Z,11.48
2022-10-30T20:02:55.753Z,12.85
2022-10-30T20:05:24.709Z,12.77
2022-10-30T20:08:00.573Z,13.32
2022-10-30T20:10:28.512Z,11.18
2022-10-30T20:12:54.900Z,13.30
2022-10-30T20:15:22.790Z,12.38
2022-10-30T20:17:49.647Z,13.35
2022-10-30T20:20:19.976Z,14.75
2022-10-30T20:22:46.582Z,12.77
2022-10-30T20:25:13.821Z,14.23
2022-10-30T20:27:41.986Z,12.05
2022-10-30T20:30:13.260Z,11.20
2022-10-30T20:32:39.670Z,12.02
2022-10-30T20:35:10.294Z,10.48
2022-10-30T20:37:37.845Z,11.52
2022-10-30T20:40:04.787Z,10.77
2022-10-30T20:42:36.860Z,11.25
2022-10-30T20:45:04.146Z,10.52
2022-10-30T20:47:30.579Z,11.07
2022-10-30T20:49:56.913Z,10.95
2022-10-30T20:52:23.382Z,11.23
2022-10-30T20:54:49.818Z,10.52
2022-10-30T20:57:16.195Z,11.00
2022-10-30T20:59:42.532Z,11.02
2022-10-30T21:02:11.552Z,11.25
2022-10-30T21:04:38.037Z,10.25
2022-10-30T21:07:04.437Z,9.77
2022-10-30T21:09:30.762Z,11.57
2022-10-30T21:11:57.206Z,12.98
2022-10-30T21:14:23.665Z,11.45
2022-10-30T21:16:50.213Z,11.45
2022-10-30T21:19:16.581Z,10.82
2022-10-30T21:21:42.917Z,9.77
2022-10-30T21:24:09.597Z,10.60
2022-10-30T21:26:37.641Z,10.25
2022-10-30T21:29:05.089Z,9.27
2022-10-30T21:31:31.731Z,10.68
2022-10-30T21:33:58.071Z,10.48
2022-10-30T21:36:24.712Z,10.93
2022-10-30T21:38:51.190Z,11.13
2022-10-30T21:41:20.059Z,10.43
2022-10-30T21:43:54.382Z,11.50
2022-10-30T21:46:22.008Z,12.07
2022-10-30T21:48:48.776Z,10.80
2022-10-30T21:51:23.821Z,10.88
2022-10-30T21:53:50.476Z,10.23
2022-10-30T21:56:22.156Z,10.43
2022-10-30T21:58:49.220Z,9.85
2022-10-30T22:01:19.203Z,10.00
2022-10-30T22:03:46.572Z,8.75
2022-10-30T22:06:15.121Z,10.70
2022-10-30T22:08:45.323Z,10.05
2022-10-30T22:11:12.332Z,9.55
2022-10-30T22:13:38.980Z,9.18
2022-10-30T22:16:07.847Z,9.77
2022-10-30T22:18:34.883Z,10.13
2022-10-30T22:21:11.928Z,10.20
2022-10-30T22:23:39.255Z,11.57
2022-10-30T22:26:17.593Z,10.63
2022-10-30T22:28:44.466Z,9.73
2022-10-30T22:31:16.614Z,10.52
2022-10-30T22:33:43.673Z,10.40
2022-10-30T22:36:17.607Z,11.13
2022-10-30T22:38:45.163Z,10.75
2022-10-30T22:41:14.834Z,10.68
2022-10-30T22:43:42.580Z,9.90
2022-10-30T22:46:09.844Z,9.95
2022-10-30T22:48:36.964Z,9.40
2022-10-30T22:51:07.675Z,9.77
2022-10-30T22:53:36.014Z,9.07
2022-10-30T22:56:21.118Z,9.88
2022-10-30T22:58:50.906Z,9.45
2022-10-30T23:01:26.830Z,10.02
2022-10-30T23:03:56.054Z,8.52
2022-10-30T23:06:22.575Z,8.80
2022-10-30T23:08:51.197Z,10.23
2022-10-30T23:11:17.565Z,10.05
2022-10-30T23:13:45.290Z,9.93
2022-10-30T23:16:16.734Z,10.57
2022-10-30T23:18:44.112Z,10.35
2022-10-30T23:21:14.254Z,9.68
2022-10-30T23:23:41.641Z,10.02
2022-10-30T23:26:13.981Z,9.63
2022-10-30T23:28:40.446Z,9.30
2022-10-30T23:31:08.762Z,9.52
2022-10-30T23:33:35.097Z,10.02
2022-10-30T23:36:03.549Z,9.35
2022-10-30T23:38:30.456Z,10.27
2022-10-30T23:40:56.838Z,9.40
2022-10-30T23:43:23.303Z,9.57
2022-10-30T23:45:49.835Z,9.90
2022-10-30T23:48:16.456Z,9.75
2022-10-30T23:50:42.810Z,9.88
2022-10-30T23:53:09.197Z,9.75
2022-10-30T23:55:35.548Z,9.10
2022-10-30T23:58:02.301Z,10.02
